Time;durP1;ratioP1;P1;durP2;ratioP2;P2;SDS_P1;SDS_P2;PMS_P1;PMS_P2;Temp;Humidity;BMP_temperature;BMP_pressure;BME280_temperature;BME280_humidity;BME280_pressure;Samples;Min_cycle;Max_cycle;Signal;HPM_P1;HPM_P2
2022/03/08 00:02:57;;;;;;;26.98;13.52;;;;;;;-0.40;57.14;100931.72;5590483;31;34710;-63
2022/03/08 00:06:01;;;;;;;25.00;13.27;;;;;;;-0.38;57.21;100940.28;5589945;31;34341;-62
2022/03/08 00:09:05;;;;;;;26.40;13.20;;;;;;;-0.36;57.28;100948.87;5590005;31;33924;-62
2022/03/08 00:12:08;;;;;;;22.90;12.60;;;;;;;-0.25;56.72;100941.31;5590406;31;33878;-62
2022/03/08 00:15:13;;;;;;;26.30;12.90;;;;;;;-0.33;57.20;100936.50;5590067;31;33959;-62
2022/03/08 00:18:17;;;;;;;26.35;12.45;;;;;;;-0.34;57.50;100934.84;5590068;31;34445;-62
2022/03/08 00:21:19;;;;;;;23.80;11.88;;;;;;;-0.34;57.93;100934.84;5590141;31;33944;-62
2022/03/08 00:24:22;;;;;;;24.63;11.57;;;;;;;-0.32;57.89;100932.97;5589148;31;34247;-62
2022/03/08 00:27:25;;;;;;;25.42;12.85;;;;;;;-0.11;57.19;100926.56;5589896;31;34603;-62
2022/03/08 00:30:29;;;;;;;24.42;12.88;;;;;;;-0.20;57.38;100926.25;5590038;31;33957;-62
2022/03/08 00:33:32;;;;;;;23.10;12.20;;;;;;;-0.21;57.66;100922.81;5589828;31;33981;-61
2022/03/08 00:36:35;;;;;;;22.33;11.63;;;;;;;-0.24;57.51;100912.53;5589844;31;34238;-62
2022/03/08 00:39:38;;;;;;;24.27;11.90;;;;;;;-0.21;57.95;100924.56;5589591;31;34597;-62
2022/03/08 00:42:40;;;;;;;20.60;10.50;;;;;;;-0.08;57.42;100913.34;5589976;31;34018;-62
2022/03/08 00:45:44;;;;;;;24.42;10.45;;;;;;;-0.11;57.83;100908.31;5590134;31;33805;-61
2022/03/08 00:48:48;;;;;;;21.80;10.48;;;;;;;-0.12;57.96;100905.78;5589779;31;34613;-61
2022/03/08 00:51:51;;;;;;;22.02;10.38;;;;;;;-0.25;58.50;100910.03;5590024;31;35212;-62
2022/03/08 00:54:54;;;;;;;19.83;10.10;;;;;;;-0.23;58.57;100909.00;5589693;31;34811;-62
2022/03/08 00:57:57;;;;;;;27.30;10.15;;;;;;;-0.23;58.82;100908.16;5589754;31;34020;-61
2022/03/08 01:01:00;;;;;;;19.12;9.98;;;;;;;-0.35;59.10;100914.06;5589695;31;34315;-61
2022/03/08 01:04:03;;;;;;;21.27;10.13;;;;;;;-0.41;59.42;100912.63;5589701;31;33799;-61
2022/03/08 01:07:08;;;;;;;23.05;11.35;;;;;;;-0.53;60.29;100913.31;5589475;31;34614;-61
2022/03/08 01:10:15;;;;;;;21.05;11.65;;;;;;;-0.65;60.78;100906.16;5589682;31;33908;-62
2022/03/08 01:13:18;;;;;;;24.87;11.65;;;;;;;-0.72;61.07;100903.03;5589816;31;34834;-62
2022/03/08 01:16:23;;;;;;;17.30;9.18;;;;;;;-0.79;61.41;100908.69;5589639;31;33886;-61
2022/03/08 01:19:27;;;;;;;17.70;10.02;;;;;;;-0.73;61.38;100903.16;5589860;31;33954;-62
2022/03/08 01:22:30;;;;;;;18.12;10.13;;;;;;;-0.78;61.97;100903.41;5589666;31;34055;-61
2022/03/08 01:25:34;;;;;;;19.08;10.85;;;;;;;-0.92;62.33;100898.09;5589424;31;34435;-63
2022/03/08 01:28:36;;;;;;;19.85;9.85;;;;;;;-1.10;63.15;100894.69;5589299;31;34336;-61
2022/03/08 01:31:39;;;;;;;21.10;10.18;;;;;;;-1.13;63.90;100891.41;5589216;31;33976;-62
2022/03/08 01:34:41;;;;;;;20.62;11.18;;;;;;;-1.21;63.93;100889.19;5589174;31;34325;-62
2022/03/08 01:37:45;;;;;;;23.70;11.20;;;;;;;-1.30;64.59;100897.50;5589195;31;34194;-62
2022/03/08 01:40:47;;;;;;;19.52;10.10;;;;;;;-1.34;64.86;100898.59;5589293;31;33944;-62
2022/03/08 01:43:51;;;;;;;18.48;10.07;;;;;;;-1.32;64.70;100901.97;5589352;31;34383;-62
2022/03/08 01:46:54;;;;;;;18.95;9.48;;;;;;;-1.09;63.88;100898.97;5589165;31;34378;-62
2022/03/08 01:49:57;;;;;;;19.40;9.80;;;;;;;-1.14;64.11;100901.00;5589196;31;33907;-62
2022/03/08 01:53:00;;;;;;;20.90;11.23;;;;;;;-0.94;63.52;100898.19;5589288;31;34686;-61
2022/03/08 01:56:03;;;;;;;20.10;10.70;;;;;;;-1.01;63.40;100899.41;5589146;31;34005;-62
2022/03/08 01:59:07;;;;;;;19.62;10.77;;;;;;;-1.08;63.71;100897.22;5589038;31;34240;-61
2022/03/08 02:02:10;;;;;;;20.37;10.90;;;;;;;-1.03;63.64;100896.06;5588971;31;34265;-61
2022/03/08 02:05:13;;;;;;;22.27;11.23;;;;;;;-1.04;63.86;100896.12;5588947;31;34085;-61
2022/03/08 02:08:16;;;;;;;20.62;11.18;;;;;;;-1.37;65.13;100897.00;5588689;31;34141;-62
2022/03/08 02:11:20;;;;;;;20.98;11.05;;;;;;;-1.43;65.45;100889.50;5588853;31;34572;-62
2022/03/08 02:14:23;;;;;;;21.60;10.85;;;;;;;-1.41;64.98;100894.63;5588752;31;33902;-61
2022/03/08 02:17:26;;;;;;;19.83;11.65;;;;;;;-1.52;65.83;100896.94;5588661;31;33853;-61
2022/03/08 02:20:30;;;;;;;19.08;11.23;;;;;;;-1.68;66.36;100894.25;5588784;31;34067;-61
2022/03/08 02:23:34;;;;;;;18.83;10.77;;;;;;;-1.74;66.46;100893.75;5588623;31;33981;-61
2022/03/08 02:26:37;;;;;;;21.45;11.50;;;;;;;-2.00;67.50;100893.28;5587620;31;33585;-61
2022/03/08 02:29:40;;;;;;;20.40;11.23;;;;;;;-1.85;68.23;100894.28;5581028;31;240250;-62
2022/03/08 02:32:43;;;;;;;18.17;9.68;;;;;;;-1.85;67.89;100896.88;5588348;31;34389;-62
2022/03/08 02:35:46;;;;;;;19.98;10.38;;;;;;;-1.66;67.96;100895.03;5588479;31;34659;-61
2022/03/08 02:38:49;;;;;;;24.35;10.00;;;;;;;-1.40;66.76;100891.94;5588167;31;34495;-62
2022/03/08 02:41:51;;;;;;;18.58;10.88;;;;;;;-1.40;66.53;100896.28;5588067;31;34719;-62
2022/03/08 02:44:54;;;;;;;18.12;10.63;;;;;;;-1.43;66.71;100893.84;5588309;31;34304;-61
2022/03/08 02:47:57;;;;;;;20.35;10.60;;;;;;;-1.25;66.06;100890.28;5590804;31;34833;-61
2022/03/08 02:51:00;;;;;;;22.13;10.85;;;;;;;-1.26;66.28;100887.78;5590112;31;34021;-61
2022/03/08 02:54:03;;;;;;;17.62;9.98;;;;;;;-1.39;66.84;100885.81;5591025;31;34671;-61
2022/03/08 02:57:05;;;;;;;22.50;12.07;;;;;;;-1.56;67.27;100892.81;5591074;31;34337;-62
2022/03/08 03:00:11;;;;;;;19.30;11.95;;;;;;;-1.51;67.52;100894.25;5590754;31;33946;-61
2022/03/08 03:03:13;;;;;;;20.35;11.45;;;;;;;-1.59;67.89;100893.78;5590697;31;34647;-62
2022/03/08 03:06:17;;;;;;;22.40;11.77;;;;;;;-1.69;68.61;100892.56;5590683;31;34418;-61
2022/03/08 03:09:20;;;;;;;22.70;12.45;;;;;;;-1.85;69.13;100908.13;5576895;31;34848;-61
2022/03/08 03:12:22;;;;;;;19.35;11.75;;;;;;;-2.03;69.58;100903.81;5590729;31;34014;-62
2022/03/08 03:15:27;;;;;;;20.52;12.13;;;;;;;-2.13;70.28;100901.78;5590603;31;33930;-61
2022/03/08 03:18:30;;;;;;;19.80;11.65;;;;;;;-2.17;71.02;100906.25;5590962;31;34599;-61
2022/03/08 03:21:34;;;;;;;22.67;11.43;;;;;;;-2.29;71.50;100906.84;5590556;31;34631;-62
2022/03/08 03:24:36;;;;;;;20.35;11.60;;;;;;;-2.40;72.13;100912.56;5590559;31;34694;-62
2022/03/08 03:27:40;;;;;;;22.48;11.77;;;;;;;-2.56;72.94;100906.38;5590389;31;33854;-62
2022/03/08 03:30:43;;;;;;;19.70;11.85;;;;;;;-2.54;73.36;100907.19;5590353;31;34013;-62
2022/03/08 03:33:46;;;;;;;24.23;12.05;;;;;;;-2.73;73.67;100906.34;5590841;31;33856;-61
2022/03/08 03:36:49;;;;;;;24.12;12.00;;;;;;;-2.83;74.07;100900.75;5590350;31;34625;-62
2022/03/08 03:39:52;;;;;;;21.02;12.40;;;;;;;-2.89;74.51;100895.81;5590365;31;34182;-62
2022/03/08 03:42:55;;;;;;;21.80;12.77;;;;;;;-2.90;74.94;100898.47;5589611;31;34274;-61
2022/03/08 03:45:57;;;;;;;23.02;12.50;;;;;;;-2.97;75.13;100904.87;5590608;31;34664;-61
2022/03/08 03:49:01;;;;;;;21.90;12.75;;;;;;;-3.04;75.50;100901.69;5590251;31;34542;-62
2022/03/08 03:52:04;;;;;;;25.88;13.05;;;;;;;-3.07;75.83;100900.09;5590290;31;34244;-62
2022/03/08 03:55:08;;;;;;;20.48;13.32;;;;;;;-2.84;76.15;100911.19;5589630;31;33626;-62
2022/03/08 03:58:10;;;;;;;23.65;14.07;;;;;;;-2.94;76.48;100910.75;5589282;31;35301;-61
2022/03/08 04:01:14;;;;;;;24.17;14.93;;;;;;;-2.88;75.96;100920.03;5590121;31;34642;-62
2022/03/08 04:04:17;;;;;;;22.50;14.27;;;;;;;-2.76;75.35;100915.09;5590058;31;34636;-61
2022/03/08 04:07:20;;;;;;;24.90;14.85;;;;;;;-2.87;75.32;100916.53;5590114;31;34551;-62
2022/03/08 04:10:23;;;;;;;26.35;14.70;;;;;;;-3.09;76.34;100920.06;5590007;31;34704;-61
2022/03/08 04:13:25;;;;;;;25.10;14.30;;;;;;;-2.93;76.72;100925.44;5590063;31;34638;-62
2022/03/08 04:16:28;;;;;;;25.08;14.68;;;;;;;-2.86;75.94;100929.44;5590017;31;35236;-61
2022/03/08 04:19:31;;;;;;;23.90;14.68;;;;;;;-2.63;75.03;100925.78;5590047;31;33876;-62
2022/03/08 04:22:34;;;;;;;25.83;14.80;;;;;;;-2.61;75.07;100926.53;5589442;31;34169;-62
2022/03/08 04:25:36;;;;;;;22.95;14.38;;;;;;;-2.56;74.69;100929.78;5590009;31;34642;-63
2022/03/08 04:28:39;;;;;;;26.33;15.07;;;;;;;-2.60;74.71;100917.84;5589359;31;34649;-63
2022/03/08 04:31:42;;;;;;;25.00;15.48;;;;;;;-2.78;75.96;100919.53;5589763;31;34613;-63
2022/03/08 04:34:45;;;;;;;27.23;15.57;;;;;;;-2.75;75.87;100926.34;5589829;31;34589;-63
2022/03/08 04:37:48;;;;;;;26.35;15.75;;;;;;;-2.68;75.82;100917.38;5589946;31;34750;-62
2022/03/08 04:40:51;;;;;;;27.50;16.15;;;;;;;-2.53;75.32;100919.25;5589740;31;34445;-61
2022/03/08 04:43:53;;;;;;;29.75;16.40;;;;;;;-2.53;75.66;100913.22;5589911;31;34599;-62
2022/03/08 04:46:56;;;;;;;26.92;16.85;;;;;;;-2.60;75.73;100907.44;5589792;31;34317;-62
2022/03/08 04:49:59;;;;;;;27.60;16.83;;;;;;;-2.57;75.58;100912.53;5589885;31;33846;-61
2022/03/08 04:53:03;;;;;;;26.58;16.27;;;;;;;-2.60;75.24;100906.59;5589674;31;34648;-62
2022/03/08 04:56:05;;;;;;;28.80;16.62;;;;;;;-2.71;75.76;100907.13;5590000;31;34641;-61
2022/03/08 04:59:08;;;;;;;29.58;17.10;;;;;;;-2.78;75.66;100906.56;5589573;31;33914;-61
2022/03/08 05:02:11;;;;;;;28.55;17.05;;;;;;;-2.77;75.73;100903.06;5589573;31;34091;-62
2022/03/08 05:05:14;;;;;;;27.17;17.75;;;;;;;-2.91;76.75;100902.84;5589191;31;33946;-62
2022/03/08 05:08:17;;;;;;;29.25;16.73;;;;;;;-2.97;76.60;100907.47;5588991;31;35158;-62
2022/03/08 05:11:20;;;;;;;31.58;17.70;;;;;;;-3.07;77.26;100910.47;5589493;31;34881;-62
2022/03/08 05:14:23;;;;;;;31.48;17.37;;;;;;;-3.06;77.63;100903.53;5589914;31;33989;-62
2022/03/08 05:17:26;;;;;;;30.23;17.65;;;;;;;-3.25;78.45;100905.28;5589555;31;34618;-62
2022/03/08 05:20:29;;;;;;;33.65;18.58;;;;;;;-3.20;78.61;100906.75;5589414;31;34104;-62
2022/03/08 05:23:32;;;;;;;30.77;18.75;;;;;;;-3.32;79.37;100902.09;5589329;31;33911;-62
2022/03/08 05:26:37;;;;;;;31.20;18.87;;;;;;;-3.09;79.30;100904.50;5589147;31;34100;-63
2022/03/08 05:29:40;;;;;;;34.80;20.50;;;;;;;-2.91;78.49;100910.63;5588698;31;33417;-63
2022/03/08 05:32:43;;;;;;;31.80;18.10;;;;;;;-2.77;77.96;100913.44;5589574;31;34751;-62
2022/03/08 05:35:46;;;;;;;29.35;17.60;;;;;;;-2.83;77.58;100913.72;5589316;31;34417;-62
2022/03/08 05:38:48;;;;;;;34.10;19.87;;;;;;;-2.93;78.39;100914.19;5589374;31;34364;-63
2022/03/08 05:41:51;;;;;;;29.92;18.73;;;;;;;-3.04;79.42;100919.88;5589172;31;34784;-62
2022/03/08 05:44:54;;;;;;;27.48;17.50;;;;;;;-2.95;79.58;100923.84;5589299;31;34660;-63
2022/03/08 05:47:57;;;;;;;29.15;18.20;;;;;;;-2.85;79.19;100922.47;5588070;31;34074;-63
2022/03/08 05:50:59;;;;;;;30.83;18.33;;;;;;;-2.99;80.15;100909.28;5589282;31;34731;-63
2022/03/08 05:54:02;;;;;;;28.12;17.62;;;;;;;-2.94;80.33;100918.53;5588958;31;34602;-63
2022/03/08 05:57:05;;;;;;;30.05;17.62;;;;;;;-2.87;80.16;100911.34;5589034;31;34121;-63
2022/03/08 06:00:09;;;;;;;34.78;18.55;;;;;;;-2.87;80.44;100912.19;5588948;31;34379;-63
2022/03/08 06:03:13;;;;;;;34.78;18.87;;;;;;;-2.76;80.54;100922.09;5588891;31;34617;-62
2022/03/08 06:06:16;;;;;;;34.53;18.98;;;;;;;-2.54;79.34;100924.50;5588921;31;34078;-62
2022/03/08 06:09:18;;;;;;;34.90;18.05;;;;;;;-2.46;78.32;100923.22;5588583;31;34575;-62
2022/03/08 06:12:21;;;;;;;38.08;19.15;;;;;;;-2.51;78.60;100929.56;5588697;31;34076;-62
2022/03/08 06:15:24;;;;;;;37.78;20.20;;;;;;;-2.56;78.91;100926.31;5588618;31;34695;-62
2022/03/08 06:18:26;;;;;;;35.78;19.70;;;;;;;-2.60;79.02;100928.22;5588051;31;33317;-62
2022/03/08 06:21:29;;;;;;;33.38;19.02;;;;;;;-2.55;78.85;100939.25;5589540;31;34481;-62
2022/03/08 06:24:32;;;;;;;38.85;20.80;;;;;;;-2.40;78.32;100953.28;5591294;31;33935;-63
2022/03/08 06:27:35;;;;;;;36.95;19.42;;;;;;;-2.31;78.27;100947.66;5590601;31;34315;-62
2022/03/08 06:30:37;;;;;;;35.67;19.83;;;;;;;-2.38;78.33;100951.47;5591212;31;34457;-62
2022/03/08 06:33:40;;;;;;;36.53;20.08;;;;;;;-2.45;78.75;100950.06;5590474;31;34198;-62
2022/03/08 06:36:43;;;;;;;33.65;19.52;;;;;;;-2.34;78.96;100951.25;5590758;31;34636;-62
2022/03/08 06:39:47;;;;;;;34.45;18.87;;;;;;;-2.09;78.14;100942.28;5590315;31;34081;-62
2022/03/08 06:42:52;;;;;;;37.15;17.75;;;;;;;-1.45;75.30;100945.13;5590273;31;34326;-62
2022/03/08 06:45:55;;;;;;;32.75;17.25;;;;;;;-1.12;74.28;100948.63;5589839;31;34593;-63
2022/03/08 06:48:59;;;;;;;26.87;15.93;;;;;;;-0.86;72.55;100949.84;5590249;31;33937;-63
2022/03/08 06:52:01;;;;;;;24.60;14.23;;;;;;;-0.45;71.30;100963.25;5590318;31;34016;-63
2022/03/08 06:55:05;;;;;;;25.27;13.60;;;;;;;-0.15;68.72;100958.13;5590764;31;34615;-62
2022/03/08 06:58:08;;;;;;;27.60;13.75;;;;;;;-0.02;67.29;100967.78;5589708;31;34397;-62
2022/03/08 07:01:11;;;;;;;27.42;14.32;;;;;;;0.61;65.42;100961.56;5590503;31;34059;-62
2022/03/08 07:04:13;;;;;;;26.55;13.62;;;;;;;0.79;64.39;100963.91;5590215;31;34642;-63
2022/03/08 07:07:23;;;;;;;25.83;13.38;;;;;;;0.74;63.90;100962.50;5590491;31;34045;-62
2022/03/08 07:10:25;;;;;;;33.47;15.52;;;;;;;0.40;66.44;100964.47;5590620;31;33967;-62
2022/03/08 07:13:28;;;;;;;31.08;15.90;;;;;;;0.07;68.89;100969.03;5590218;31;34738;-62
2022/03/08 07:16:31;;;;;;;34.05;16.23;;;;;;;-0.21;70.94;100971.50;5589540;31;33967;-61
2022/03/08 07:19:34;;;;;;;36.45;17.80;;;;;;;-0.56;73.09;100968.22;5590147;31;33995;-63
2022/03/08 07:22:36;;;;;;;29.65;15.27;;;;;;;-0.34;72.71;100976.56;5590657;31;34337;-62
2022/03/08 07:25:39;;;;;;;32.58;16.00;;;;;;;-0.28;71.67;100972.75;5590167;31;33861;-62
2022/03/08 07:28:42;;;;;;;33.30;16.58;;;;;;;-0.21;70.93;100979.31;5589612;31;34057;-62
2022/03/08 07:31:45;;;;;;;30.33;17.55;;;;;;;-0.26;70.91;100974.38;5590598;31;34696;-62
2022/03/08 07:34:48;;;;;;;29.50;16.23;;;;;;;-0.07;70.05;100982.84;5589343;31;34827;-63
2022/03/08 07:37:51;;;;;;;35.13;16.02;;;;;;;0.67;67.71;100971.66;5589703;31;35220;-63
2022/03/08 07:40:53;;;;;;;28.42;15.27;;;;;;;1.63;63.06;100974.44;5590104;31;34330;-63
2022/03/08 07:43:56;;;;;;;35.25;15.32;;;;;;;2.21;60.65;100973.31;5590010;31;34280;-62
2022/03/08 07:47:00;;;;;;;27.55;14.45;;;;;;;2.90;57.47;100973.03;5589366;31;34623;-63
2022/03/08 07:50:04;;;;;;;25.90;14.00;;;;;;;3.86;54.36;100969.72;5590031;31;34218;-61
2022/03/08 07:53:07;;;;;;;26.45;14.77;;;;;;;4.32;52.48;100982.97;5590172;31;34286;-62
2022/03/08 07:56:10;;;;;;;27.48;14.18;;;;;;;4.80;51.25;100970.56;5590228;31;34687;-62
2022/03/08 07:59:13;;;;;;;23.73;13.93;;;;;;;5.14;51.50;100974.91;5590273;31;34560;-62
2022/03/08 08:02:16;;;;;;;21.83;13.25;;;;;;;7.39;44.14;100970.38;5590175;31;34542;-63
2022/03/08 08:05:20;;;;;;;25.88;13.85;;;;;;;8.37;42.69;100977.59;5589910;31;33964;-63
2022/03/08 08:08:23;;;;;;;20.37;11.95;;;;;;;8.28;41.45;100969.47;5590020;31;33900;-62
2022/03/08 08:11:26;;;;;;;19.62;10.98;;;;;;;8.45;40.46;100972.41;5590203;31;34671;-63
2022/03/08 08:14:28;;;;;;;21.83;11.68;;;;;;;7.66;40.98;100966.28;5589471;31;34215;-63
2022/03/08 08:17:32;;;;;;;22.90;12.23;;;;;;;7.79;41.22;100969.56;5589876;31;34368;-63
2022/03/08 08:20:35;;;;;;;20.30;10.82;;;;;;;7.35;42.37;100969.00;5589951;31;33952;-63
2022/03/08 08:23:38;;;;;;;16.62;10.63;;;;;;;8.75;39.53;100969.63;5589985;31;34012;-63
2022/03/08 08:26:40;;;;;;;19.40;10.98;;;;;;;8.58;39.11;100957.94;5589831;31;33957;-63
2022/03/08 08:29:43;;;;;;;19.50;11.20;;;;;;;8.78;38.29;100955.25;5589922;31;34306;-63
2022/03/08 08:32:46;;;;;;;19.20;11.15;;;;;;;8.95;38.78;100959.84;5589704;31;34210;-63
2022/03/08 08:35:49;;;;;;;20.67;10.43;;;;;;;10.72;34.55;100955.69;5589688;31;33854;-63
2022/03/08 08:38:52;;;;;;;15.95;9.20;;;;;;;10.61;34.49;100955.09;5589835;31;34438;-62
2022/03/08 08:41:56;;;;;;;15.75;9.20;;;;;;;9.47;35.96;100958.38;5589499;31;33949;-64
2022/03/08 08:44:59;;;;;;;20.67;10.88;;;;;;;7.15;40.94;100959.31;5587808;31;34441;-64
2022/03/08 08:48:07;;;;;;;16.45;10.27;;;;;;;8.13;39.48;100952.34;5589775;31;34252;-64
2022/03/08 08:51:10;;;;;;;17.15;9.75;;;;;;;9.79;36.47;100956.13;5589814;31;34661;-63
2022/03/08 08:54:12;;;;;;;21.58;10.23;;;;;;;8.60;37.95;100956.00;5589772;31;34115;-64
2022/03/08 08:57:15;;;;;;;18.50;9.65;;;;;;;6.76;41.97;100949.50;5589709;31;34653;-63
2022/03/08 09:00:18;;;;;;;16.30;10.30;;;;;;;5.63;45.30;100957.94;5589753;31;33986;-63
2022/03/08 09:03:21;;;;;;;14.27;9.20;;;;;;;5.22;46.64;100953.31;5589467;31;34593;-63
2022/03/08 09:06:26;;;;;;;18.00;10.40;;;;;;;4.96;47.26;100947.41;5589561;31;33916;-64
2022/03/08 09:09:29;;;;;;;23.67;10.85;;;;;;;4.38;50.32;100945.75;5589586;31;34351;-62
2022/03/08 09:12:32;;;;;;;18.45;9.70;;;;;;;4.43;50.12;100943.59;5589851;31;34710;-64
2022/03/08 09:15:41;;;;;;;15.70;9.40;;;;;;;4.45;49.64;100939.09;5589293;31;34770;-64
2022/03/08 09:18:56;;;;;;;;;;;;;;;4.44;48.88;100947.91;5589813;31;33623;-63
2022/03/08 09:21:58;;;;;;;19.58;10.68;;;;;;;4.54;49.93;100940.19;5589502;31;34649;-62
2022/03/08 09:25:03;;;;;;;19.00;9.38;;;;;;;4.36;50.30;100943.22;5589413;31;34027;-63
2022/03/08 09:28:06;;;;;;;17.90;9.73;;;;;;;4.54;49.40;100933.13;5589004;31;33988;-63
2022/03/08 09:31:09;;;;;;;15.98;9.13;;;;;;;4.35;49.49;100933.69;5588749;31;34625;-63
2022/03/08 09:34:12;;;;;;;21.90;9.75;;;;;;;4.29;49.46;100942.00;5589342;31;34574;-63
2022/03/08 09:37:15;;;;;;;19.23;8.68;;;;;;;4.10;50.42;100933.81;5589109;31;33957;-62
2022/03/08 09:40:18;;;;;;;16.73;9.50;;;;;;;4.13;50.43;100938.00;5588947;31;34685;-63
2022/03/08 09:43:21;;;;;;;20.42;9.85;;;;;;;4.46;50.77;100940.75;5589119;31;34632;-64
2022/03/08 09:46:24;;;;;;;22.50;9.90;;;;;;;4.42;49.57;100944.56;5589023;31;34156;-63
2022/03/08 09:49:27;;;;;;;15.68;8.63;;;;;;;4.72;50.20;100938.78;5588435;31;33926;-63
2022/03/08 09:52:35;;;;;;;17.20;9.07;;;;;;;4.59;49.20;100935.41;5589244;31;33914;-63
2022/03/08 09:55:38;;;;;;;17.35;9.20;;;;;;;4.68;48.99;100938.19;5589029;31;34415;-63
2022/03/08 09:58:41;;;;;;;14.77;8.88;;;;;;;4.94;48.21;100930.09;5589333;31;33967;-63
2022/03/08 10:01:45;;;;;;;15.10;8.23;;;;;;;4.75;47.67;100942.00;5588859;31;34471;-63
2022/03/08 10:05:05;;;;;;;14.63;8.05;;;;;;;4.86;48.01;100937.72;5588788;31;33955;-62
2022/03/08 10:08:13;;;;;;;12.82;7.85;;;;;;;5.11;47.34;100937.50;5588671;31;34019;-63
2022/03/08 10:11:17;;;;;;;13.70;8.50;;;;;;;5.14;46.75;100935.47;5588739;31;34269;-63
2022/03/08 10:14:35;;;;;;;17.02;8.57;;;;;;;5.15;45.75;100931.06;5588717;31;34706;-62
2022/03/08 10:17:40;;;;;;;13.82;7.93;;;;;;;5.29;45.75;100932.59;5588466;31;34258;-63
2022/03/08 10:20:43;;;;;;;21.00;9.32;;;;;;;5.42;45.94;100933.31;5588250;31;34002;-62
2022/03/08 10:23:46;;;;;;;14.65;7.30;;;;;;;5.61;45.74;100930.91;5587346;31;33899;-63
2022/03/08 10:26:58;;;;;;;13.40;7.20;;;;;;;5.44;43.48;100936.66;5588023;31;34594;-64
2022/03/08 10:30:03;;;;;;;13.77;7.55;;;;;;;5.69;44.32;100931.13;5587832;31;34571;-63
2022/03/08 10:33:34;;;;;;;15.43;7.18;;;;;;;5.60;43.99;100931.84;5588193;31;34286;-63
2022/03/08 10:36:37;;;;;;;13.80;7.55;;;;;;;5.85;44.26;100922.84;5588526;31;34295;-63
2022/03/08 10:39:57;;;;;;;13.95;7.35;;;;;;;5.84;43.78;100916.72;5588217;31;34079;-63
2022/03/08 10:43:07;;;;;;;13.20;7.40;;;;;;;5.98;43.73;100918.25;5592559;31;33950;-63
2022/03/08 10:46:16;;;;;;;10.55;6.80;;;;;;;6.27;42.53;100916.72;5588915;31;35201;-62
2022/03/08 10:49:21;;;;;;;12.37;7.00;;;;;;;6.17;42.13;100914.94;5587412;31;34251;-63
2022/03/08 10:52:32;;;;;;;11.40;7.03;;;;;;;5.97;42.23;100922.69;5588392;31;33964;-64
2022/03/08 10:55:45;;;;;;;12.95;7.40;;;;;;;5.87;42.52;100915.66;5587869;31;33996;-63
2022/03/08 10:58:49;;;;;;;12.52;6.40;;;;;;;6.14;42.43;100921.31;5588113;31;33983;-63
2022/03/08 11:01:52;;;;;;;16.20;7.20;;;;;;;6.34;41.47;100920.50;5586804;31;34045;-63
2022/03/08 11:05:10;;;;;;;10.95;6.35;;;;;;;6.36;41.54;100915.94;5587885;31;34821;-63
2022/03/08 11:08:13;;;;;;;17.95;7.30;;;;;;;6.39;40.03;100905.13;5589772;31;34647;-63
2022/03/08 11:11:19;;;;;;;10.50;6.10;;;;;;;6.46;40.31;100913.38;5590386;31;33981;-64
2022/03/08 11:14:21;;;;;;;13.57;5.70;;;;;;;7.01;38.59;100904.25;5590819;31;35219;-62
2022/03/08 11:17:24;;;;;;;8.85;5.30;;;;;;;7.35;37.41;100907.44;5589991;31;35231;-63
2022/03/08 11:20:29;;;;;;;7.40;4.93;;;;;;;8.34;35.37;100903.81;5590042;31;34206;-63
2022/03/08 11:23:32;;;;;;;9.93;5.00;;;;;;;11.37;29.80;100896.84;5590720;31;34634;-63
2022/03/08 11:26:36;;;;;;;7.90;4.75;;;;;;;13.93;25.95;100897.72;5590377;31;34312;-64
2022/03/08 11:29:39;;;;;;;9.35;5.20;;;;;;;17.03;21.90;100895.28;5590293;31;33999;-63
2022/03/08 11:33:39;;;;;;;7.68;4.47;;;;;;;17.10;20.86;100887.25;5590087;31;34026;-64
2022/03/08 11:36:51;;;;;;;7.97;4.05;;;;;;;16.66;20.85;100882.22;5510591;32;33825;-63
2022/03/08 11:40:09;;;;;;;7.37;4.85;;;;;;;18.66;19.05;100879.84;5520082;31;34770;-64
2022/03/08 11:43:11;;;;;;;8.38;4.00;;;;;;;17.09;19.85;100872.22;5590207;31;34676;-64
2022/03/08 11:46:18;;;;;;;7.05;4.10;;;;;;;15.49;20.64;100876.31;5591081;31;35237;-65
2022/03/08 11:49:40;;;;;;;7.15;4.20;;;;;;;13.38;23.26;100872.03;5589722;31;34568;-63
2022/03/08 11:52:43;;;;;;;7.20;4.40;;;;;;;12.23;25.02;100863.63;5590175;31;34175;-64
2022/03/08 11:55:50;;;;;;;6.78;3.92;;;;;;;12.26;25.43;100860.63;5590738;31;34273;-64
2022/03/08 11:58:53;;;;;;;6.75;3.90;;;;;;;12.20;25.32;100856.78;5590235;31;34674;-64
2022/03/08 12:01:56;;;;;;;9.13;3.95;;;;;;;15.13;22.06;100859.41;5588925;31;33916;-64
2022/03/08 12:04:59;;;;;;;6.55;3.97;;;;;;;14.91;21.96;100852.34;5589914;31;35166;-64
2022/03/08 12:08:26;;;;;;;6.10;4.12;;;;;;;13.18;23.51;100857.44;5589737;31;34610;-65
2022/03/08 12:11:34;;;;;;;8.65;4.47;;;;;;;15.86;20.92;100853.91;5590250;31;35270;-65
2022/03/08 12:15:03;;;;;;;7.93;4.72;;;;;;;15.91;21.24;100858.69;5589788;31;34528;-65
2022/03/08 12:18:17;;;;;;;7.25;4.60;;;;;;;16.18;20.71;100851.72;5588683;31;34246;-64
2022/03/08 12:21:27;;;;;;;9.77;4.37;;;;;;;15.88;21.01;100838.50;5589954;31;34055;-64
2022/03/08 12:24:39;;;;;;;6.32;4.20;;;;;;;15.44;21.48;100840.47;5589263;31;35476;-64
2022/03/08 12:27:48;;;;;;;7.53;4.40;;;;;;;15.48;20.96;100839.91;5589540;31;34080;-65
2022/03/08 12:31:05;;;;;;;8.00;4.37;;;;;;;17.80;19.28;100835.97;5589884;31;35198;-66
2022/03/08 12:34:35;;;;;;;4.97;3.58;;;;;;;19.01;17.89;100830.16;5589516;31;34647;-65
2022/03/08 12:38:02;;;;;;;4.87;3.75;;;;;;;19.10;17.76;100828.88;5589558;31;33907;-65
2022/03/08 12:41:05;;;;;;;6.12;3.72;;;;;;;17.11;18.98;100821.91;5589155;31;34613;-65
2022/03/08 12:44:08;;;;;;;6.22;3.92;;;;;;;17.01;19.26;100822.25;5589550;31;34140;-65
2022/03/08 12:47:11;;;;;;;5.32;3.60;;;;;;;13.86;22.13;100820.25;5589387;31;34038;-64
2022/03/08 13:23:21;;;;;;;6.93;4.03;;;;;;;10.79;26.62;100809.97;5589153;31;34067;-63
2022/03/08 13:29:45;;;;;;;6.97;4.28;;;;;;;10.13;27.97;100802.53;5588485;31;34624;-64
2022/03/08 13:33:08;;;;;;;4.80;3.60;;;;;;;10.59;27.43;100795.25;5589162;31;33986;-64
2022/03/08 13:36:12;;;;;;;13.35;3.75;;;;;;;12.55;24.48;100798.88;5589261;31;34169;-64
2022/03/08 13:39:15;;;;;;;8.77;4.12;;;;;;;14.96;21.66;100789.28;5589048;31;33908;-65
2022/03/08 13:42:18;;;;;;;5.93;3.70;;;;;;;14.82;21.81;100786.63;5588877;31;34623;-64
2022/03/08 13:45:27;;;;;;;6.10;3.90;;;;;;;14.91;21.95;100790.88;5588955;31;34120;-64
2022/03/08 13:48:37;;;;;;;6.78;3.83;;;;;;;14.53;22.05;100784.78;5588734;31;34085;-64
2022/03/08 13:51:40;;;;;;;6.65;3.72;;;;;;;14.64;22.12;100793.19;5588988;31;34727;-64
2022/03/08 13:54:44;;;;;;;7.37;4.18;;;;;;;15.53;21.78;100783.22;5589058;31;34157;-65
2022/03/08 13:58:01;;;;;;;7.45;4.12;;;;;;;16.53;20.95;100791.88;5589174;31;34754;-65
2022/03/08 14:01:05;;;;;;;6.32;4.03;;;;;;;13.70;23.63;100791.00;5588686;31;33975;-64
2022/03/08 14:04:24;;;;;;;7.10;4.12;;;;;;;15.11;21.89;100789.25;5588720;31;34002;-64
2022/03/08 14:07:26;;;;;;;6.37;3.97;;;;;;;13.12;23.60;100783.53;5588821;31;34315;-63
2022/03/08 14:10:30;;;;;;;7.40;4.35;;;;;;;10.88;26.82;100780.63;5588233;31;34068;-63
2022/03/08 14:13:35;;;;;;;8.43;4.53;;;;;;;9.97;28.13;100774.09;5588653;31;34000;-63
2022/03/08 14:16:46;;;;;;;7.45;3.95;;;;;;;10.10;28.66;100776.34;5588565;31;35188;-64
2022/03/08 14:19:52;;;;;;;9.13;4.43;;;;;;;10.69;27.38;100772.09;5587764;31;35252;-63
2022/03/08 14:23:02;;;;;;;6.90;4.12;;;;;;;10.60;27.39;100770.41;5588179;31;33870;-64
2022/03/08 14:26:07;;;;;;;8.63;4.65;;;;;;;14.17;22.73;100774.78;5587371;31;34061;-64
2022/03/08 14:29:12;;;;;;;7.35;4.15;;;;;;;15.19;21.37;100776.66;5588319;31;33947;-64
2022/03/08 14:32:14;;;;;;;7.30;4.47;;;;;;;15.98;20.27;100765.91;5586783;31;34087;-64
2022/03/08 14:35:21;;;;;;;6.62;3.83;;;;;;;15.35;20.85;100775.56;5588130;31;35246;-64
2022/03/08 14:38:24;;;;;;;7.80;4.10;;;;;;;14.48;21.44;100772.00;5588018;31;34196;-64
2022/03/08 14:41:27;;;;;;;8.70;3.95;;;;;;;12.20;23.83;100769.00;5588480;31;35304;-63
2022/03/08 14:44:33;;;;;;;6.80;3.65;;;;;;;10.11;26.60;100772.72;5590190;31;34410;-64
2022/03/08 14:47:40;;;;;;;14.65;4.00;;;;;;;9.23;27.87;100765.66;5590046;31;34564;-63